Time;durP1;ratioP1;P1;durP2;ratioP2;P2;SDS_P1;SDS_P2;PMS_P1;PMS_P2;Temp;Humidity;BMP_temperature;BMP_pressure;BME280_temperature;BME280_humidity;BME280_pressure;Samples;Min_cycle;Max_cycle;Signal;HPM_P1;HPM_P2
2022/07/01 00:01:58;;;;;;;5.10;1.63;;;15.70;99.90;;;;;;5055030;28;20426;-79
2022/07/01 00:04:27;;;;;;;8.50;1.90;;;15.70;99.90;;;;;;5054510;28;20046;-79
2022/07/01 00:06:56;;;;;;;6.80;1.83;;;15.70;99.90;;;;;;5050986;28;20075;-79
2022/07/01 00:09:23;;;;;;;7.10;2.00;;;15.70;99.90;;;;;;5070717;28;20040;-79
2022/07/01 00:11:49;;;;;;;7.65;1.88;;;15.70;99.90;;;;;;5070109;28;20127;-78
2022/07/01 00:14:15;;;;;;;7.32;1.70;;;15.70;99.90;;;;;;5053635;28;20063;-79
2022/07/01 00:16:41;;;;;;;6.50;1.88;;;15.70;99.90;;;;;;5053297;28;20048;-79
2022/07/01 00:19:06;;;;;;;5.75;1.70;;;15.70;99.90;;;;;;5053757;28;20060;-79
2022/07/01 00:21:33;;;;;;;7.95;1.63;;;15.70;99.90;;;;;;5036634;28;20483;-78
2022/07/01 00:23:59;;;;;;;4.38;1.52;;;15.70;99.90;;;;;;5053711;28;20120;-79
2022/07/01 00:26:25;;;;;;;4.75;1.50;;;15.70;99.90;;;;;;5053352;28;20036;-78
2022/07/01 00:28:51;;;;;;;6.55;1.67;;;15.70;99.90;;;;;;5070146;28;20039;-79
2022/07/01 00:31:17;;;;;;;5.88;1.75;;;15.80;99.90;;;;;;5068539;28;20048;-78
2022/07/01 00:33:43;;;;;;;5.45;1.70;;;15.80;99.90;;;;;;5055947;28;20129;-79
2022/07/01 00:36:08;;;;;;;7.25;1.80;;;15.80;99.90;;;;;;5077156;28;20056;-79
2022/07/01 00:38:34;;;;;;;4.68;1.60;;;15.80;99.90;;;;;;5071897;28;20064;-78
2022/07/01 00:41:00;;;;;;;7.80;1.70;;;15.90;99.90;;;;;;5053230;28;20115;-79
2022/07/01 00:43:26;;;;;;;5.28;1.60;;;15.90;99.90;;;;;;5088761;28;20433;-78
2022/07/01 00:45:52;;;;;;;6.40;1.88;;;15.80;99.90;;;;;;5053399;28;20537;-80
2022/07/01 00:48:22;;;;;;;6.38;1.90;;;15.80;99.90;;;;;;5062129;28;20097;-78
2022/07/01 00:50:48;;;;;;;7.43;2.08;;;15.80;99.90;;;;;;5046851;28;20160;-79
2022/07/01 00:53:15;;;;;;;6.95;1.90;;;15.80;99.90;;;;;;5072987;28;20146;-78
2022/07/01 00:55:41;;;;;;;7.03;1.90;;;15.90;99.90;;;;;;5062634;28;20052;-79
2022/07/01 00:58:08;;;;;;;6.80;2.25;;;15.90;99.90;;;;;;5069400;28;20056;-78
2022/07/01 01:00:35;;;;;;;6.38;2.05;;;15.90;99.90;;;;;;5020145;28;20036;-78
2022/07/01 01:03:01;;;;;;;5.53;1.85;;;15.90;99.90;;;;;;5052710;28;20044;-79
2022/07/01 01:05:27;;;;;;;6.63;2.00;;;15.90;99.90;;;;;;5036576;28;20116;-79
2022/07/01 01:07:53;;;;;;;5.85;2.10;;;15.90;99.90;;;;;;5069414;28;20479;-79
2022/07/01 01:10:20;;;;;;;5.35;1.70;;;15.90;99.90;;;;;;5069620;28;20514;-78
2022/07/01 01:12:46;;;;;;;5.75;2.05;;;15.90;99.90;;;;;;5052164;28;20040;-80
2022/07/01 01:15:18;;;;;;;5.40;1.92;;;15.90;99.90;;;;;;5069549;28;20040;-79
2022/07/01 01:17:44;;;;;;;6.60;1.97;;;15.90;99.90;;;;;;5035733;28;20162;-79
2022/07/01 01:20:15;;;;;;;5.68;1.60;;;15.90;99.90;;;;;;5047020;28;20213;-79
2022/07/01 01:22:41;;;;;;;5.18;1.60;;;15.90;99.90;;;;;;5066846;28;20494;-79
2022/07/01 01:25:07;;;;;;;4.72;1.48;;;15.90;99.90;;;;;;5072669;28;20493;-78
2022/07/01 01:27:33;;;;;;;3.55;1.20;;;15.90;99.90;;;;;;5058979;28;20611;-79
2022/07/01 01:29:59;;;;;;;4.82;1.58;;;15.80;99.90;;;;;;5052773;28;20517;-79
2022/07/01 01:32:25;;;;;;;6.85;1.70;;;15.80;99.90;;;;;;5051918;28;20399;-78
2022/07/01 01:34:50;;;;;;;3.72;1.50;;;15.80;99.90;;;;;;5035690;28;20036;-79
2022/07/01 01:37:16;;;;;;;3.85;1.48;;;15.80;99.90;;;;;;5035249;28;20032;-78
2022/07/01 01:39:42;;;;;;;2.65;1.25;;;15.80;99.90;;;;;;5035967;28;20040;-79
2022/07/01 01:42:08;;;;;;;6.47;1.63;;;15.80;99.90;;;;;;5035169;28;20041;-79
2022/07/01 01:44:34;;;;;;;4.65;1.50;;;15.70;99.90;;;;;;5035653;28;20036;-78
2022/07/01 01:46:59;;;;;;;5.10;1.50;;;15.80;99.90;;;;;;5068549;28;20037;-78
2022/07/01 01:49:25;;;;;;;3.65;1.48;;;15.80;99.90;;;;;;5038459;28;20048;-80
2022/07/01 01:51:51;;;;;;;3.97;1.45;;;15.80;99.90;;;;;;5071785;28;20494;-78
2022/07/01 01:54:17;;;;;;;3.70;1.40;;;15.80;99.90;;;;;;5070155;28;20043;-79
2022/07/01 01:56:42;;;;;;;4.57;1.50;;;15.80;99.90;;;;;;5018710;28;20040;-78
2022/07/01 01:59:08;;;;;;;5.18;1.63;;;15.80;99.90;;;;;;5068536;28;20044;-78
2022/07/01 02:01:34;;;;;;;4.03;1.60;;;15.80;99.90;;;;;;5068005;28;20048;-78
2022/07/01 02:04:00;;;;;;;3.83;1.42;;;15.80;99.90;;;;;;5035369;28;20075;-79
2022/07/01 02:06:25;;;;;;;5.63;1.45;;;15.80;99.90;;;;;;5057764;28;20033;-79
2022/07/01 02:08:51;;;;;;;4.20;1.60;;;15.80;99.90;;;;;;5035498;28;20387;-78
2022/07/01 02:11:17;;;;;;;4.05;1.50;;;15.80;99.90;;;;;;5051510;28;20040;-78
2022/07/01 02:13:44;;;;;;;4.70;1.48;;;15.80;99.90;;;;;;5051849;28;20411;-78
2022/07/01 02:16:10;;;;;;;3.55;1.50;;;15.70;99.90;;;;;;5067799;28;20051;-78
2022/07/01 02:18:36;;;;;;;4.70;1.50;;;15.70;99.90;;;;;;5034684;28;20060;-79
2022/07/01 02:21:02;;;;;;;3.58;1.40;;;15.70;99.90;;;;;;5067988;28;20044;-79
2022/07/01 02:23:29;;;;;;;4.07;1.55;;;15.70;99.90;;;;;;5051098;28;20037;-79
2022/07/01 02:25:55;;;;;;;3.50;1.33;;;15.70;99.90;;;;;;5067600;28;20154;-79
2022/07/01 02:28:21;;;;;;;5.10;1.80;;;15.70;99.90;;;;;;5051901;28;20037;-78
2022/07/01 02:30:47;;;;;;;4.20;1.70;;;15.70;99.90;;;;;;5051318;28;20341;-78
2022/07/01 02:33:13;;;;;;;5.60;1.60;;;15.70;99.90;;;;;;5068467;28;20197;-78
2022/07/01 02:35:39;;;;;;;3.65;1.45;;;15.60;99.90;;;;;;5017964;28;20535;-78
2022/07/01 02:38:06;;;;;;;3.50;1.40;;;15.60;99.90;;;;;;5051343;28;20115;-78
2022/07/01 02:40:33;;;;;;;4.30;1.60;;;15.60;99.90;;;;;;5051060;28;20043;-78
2022/07/01 02:43:00;;;;;;;4.40;1.58;;;15.60;99.90;;;;;;5067916;28;20656;-78
2022/07/01 02:45:25;;;;;;;3.33;1.50;;;15.60;99.90;;;;;;5051526;28;20058;-78
2022/07/01 02:47:51;;;;;;;6.38;2.22;;;15.60;99.90;;;;;;5057455;28;20486;-79
2022/07/01 02:50:19;;;;;;;5.22;1.90;;;15.60;99.90;;;;;;5057336;28;20075;-79
2022/07/01 02:52:45;;;;;;;4.22;1.85;;;15.60;99.90;;;;;;5050723;28;20090;-78
2022/07/01 02:55:12;;;;;;;5.78;1.90;;;15.60;99.90;;;;;;5037416;28;20447;-78
2022/07/01 02:57:39;;;;;;;5.43;1.73;;;15.60;99.90;;;;;;5067492;28;20616;-78
2022/07/01 03:00:11;;;;;;;5.07;2.00;;;15.60;99.90;;;;;;5034410;28;20174;-78
2022/07/01 03:02:36;;;;;;;5.32;1.83;;;15.60;99.90;;;;;;5050744;28;20059;-78
2022/07/01 03:05:03;;;;;;;5.88;1.90;;;15.50;99.90;;;;;;5067638;28;20494;-78
2022/07/01 03:07:29;;;;;;;6.18;2.00;;;15.50;99.90;;;;;;5050493;28;20033;-79
2022/07/01 03:09:55;;;;;;;7.22;2.10;;;15.50;99.90;;;;;;5051019;28;20047;-78
2022/07/01 03:12:28;;;;;;;5.78;2.15;;;15.40;99.90;;;;;;5050357;28;20032;-78
2022/07/01 03:14:58;;;;;;;8.25;2.20;;;15.40;99.90;;;;;;5036033;28;20136;-78
2022/07/01 03:17:25;;;;;;;6.70;1.90;;;15.40;99.90;;;;;;5050213;28;20041;-78
2022/07/01 03:19:51;;;;;;;7.47;2.40;;;15.20;99.90;;;;;;5053988;28;20490;-78
2022/07/01 03:22:17;;;;;;;5.38;2.20;;;15.40;99.90;;;;;;5050299;28;20047;-78
2022/07/01 03:24:43;;;;;;;6.15;2.40;;;15.40;99.90;;;;;;5050851;28;20072;-78
2022/07/01 03:27:09;;;;;;;6.22;2.20;;;15.40;99.90;;;;;;5059831;28;20072;-78
2022/07/01 03:29:36;;;;;;;9.20;2.45;;;15.30;99.90;;;;;;5051164;28;20407;-79
2022/07/01 03:32:02;;;;;;;7.53;2.38;;;15.30;99.90;;;;;;5033969;28;20044;-79
2022/07/01 03:34:27;;;;;;;6.25;2.53;;;15.30;99.90;;;;;;5050524;28;20491;-78
2022/07/01 03:36:53;;;;;;;6.70;2.47;;;15.30;99.90;;;;;;5020796;28;20098;-78
2022/07/01 03:39:19;;;;;;;7.15;2.35;;;15.30;99.90;;;;;;5038032;28;20068;-78
2022/07/01 03:41:45;;;;;;;8.18;2.45;;;15.30;99.90;;;;;;5037858;28;20119;-78
2022/07/01 03:44:10;;;;;;;8.20;2.10;;;15.30;99.90;;;;;;5038339;28;20048;-78
2022/07/01 03:46:37;;;;;;;10.30;2.60;;;15.40;99.90;;;;;;5053870;28;20499;-78
2022/07/01 03:49:04;;;;;;;6.80;2.33;;;15.40;99.90;;;;;;5061637;28;20366;-78
2022/07/01 03:51:30;;;;;;;6.78;2.45;;;15.30;99.90;;;;;;5074023;28;20044;-78
2022/07/01 03:56:39;;;;;;;6.50;2.58;;;15.30;99.90;;;;;;5061473;28;20040;-77
2022/07/01 03:59:05;;;;;;;6.82;2.33;;;14.70;99.90;;;;;;5054382;28;20505;-77
2022/07/01 04:01:31;;;;;;;7.95;2.50;;;15.40;99.90;;;;;;5053872;28;20125;-77
2022/07/01 04:03:56;;;;;;;8.50;2.75;;;15.40;99.90;;;;;;5054220;28;20036;-78
2022/07/01 04:06:23;;;;;;;6.30;2.38;;;15.40;99.90;;;;;;5049377;28;20504;-78
2022/07/01 04:08:49;;;;;;;7.25;2.58;;;15.40;99.90;;;;;;5060514;28;20039;-78
2022/07/01 04:11:15;;;;;;;7.75;3.00;;;15.40;99.90;;;;;;5090827;28;20040;-78
2022/07/01 04:13:46;;;;;;;6.88;2.63;;;15.40;99.90;;;;;;5090640;28;20042;-78
2022/07/01 04:16:12;;;;;;;8.93;2.70;;;15.40;99.90;;;;;;5073726;28;20036;-78
2022/07/01 04:18:38;;;;;;;6.53;2.60;;;15.40;99.90;;;;;;5090921;28;20063;-78
2022/07/01 04:23:50;;;;;;;8.05;2.72;;;15.40;99.90;;;;;;5076415;28;20071;-78
2022/07/01 04:26:16;;;;;;;9.85;3.15;;;15.40;99.90;;;;;;5056807;28;20040;-78
2022/07/01 04:28:42;;;;;;;8.38;2.80;;;15.40;99.90;;;;;;5040565;28;20039;-78
2022/07/01 04:31:08;;;;;;;8.10;2.72;;;15.40;99.90;;;;;;5059838;28;20040;-77
2022/07/01 04:33:34;;;;;;;7.65;2.85;;;15.70;99.90;;;;;;5053677;28;20052;-77
2022/07/01 04:35:59;;;;;;;6.57;2.70;;;15.40;99.90;;;;;;5036504;28;20124;-77
2022/07/01 04:38:25;;;;;;;8.00;2.83;;;15.40;99.90;;;;;;5020783;28;20124;-78
2022/07/01 04:43:35;;;;;;;7.38;3.00;;;15.40;99.90;;;;;;5042260;28;20044;-78
2022/07/01 04:46:00;;;;;;;8.23;2.92;;;15.50;99.90;;;;;;5053171;28;20060;-78
2022/07/01 04:48:26;;;;;;;8.30;3.33;;;15.40;99.90;;;;;;5058757;28;20072;-77
2022/07/01 04:50:52;;;;;;;8.07;3.42;;;15.40;99.90;;;;;;5036275;28;20406;-78
2022/07/01 04:53:17;;;;;;;8.90;3.70;;;15.40;99.90;;;;;;5036899;28;20094;-78
2022/07/01 04:55:43;;;;;;;9.23;3.53;;;15.40;99.90;;;;;;5072917;28;20300;-78
2022/07/01 04:58:09;;;;;;;8.45;3.50;;;15.50;99.90;;;;;;5073043;28;20044;-78
2022/07/01 05:00:35;;;;;;;10.82;3.92;;;15.50;99.90;;;;;;5056597;28;20079;-77
2022/07/01 05:03:00;;;;;;;8.32;3.78;;;15.50;99.90;;;;;;5072951;28;20044;-78
2022/07/01 05:05:26;;;;;;;8.23;3.78;;;15.50;99.90;;;;;;5073212;28;20040;-77
2022/07/01 05:07:51;;;;;;;10.85;4.43;;;15.50;99.90;;;;;;5089539;28;20094;-78
2022/07/01 05:10:17;;;;;;;7.85;3.90;;;15.60;99.90;;;;;;5040070;28;20123;-78
2022/07/01 05:12:43;;;;;;;15.48;5.18;;;15.50;99.90;;;;;;5055024;28;20039;-77
2022/07/01 05:15:09;;;;;;;10.43;5.15;;;15.50;99.90;;;;;;5036701;28;20127;-77
2022/07/01 05:23:04;;;;;;;11.10;5.95;;;15.50;99.90;;;;;;5055231;28;20059;-78
2022/07/01 05:25:30;;;;;;;11.73;6.32;;;15.60;99.90;;;;;;5052678;28;20041;-78
2022/07/01 05:27:55;;;;;;;14.15;7.28;;;15.60;99.90;;;;;;5039110;28;20062;-77
2022/07/01 05:30:21;;;;;;;14.60;7.22;;;15.60;99.90;;;;;;5039569;28;20387;-78
2022/07/01 05:32:47;;;;;;;15.85;8.15;;;15.60;99.90;;;;;;5055342;28;20043;-78
2022/07/01 05:35:16;;;;;;;16.13;9.07;;;15.60;99.90;;;;;;5072590;28;20040;-78
2022/07/01 05:37:42;;;;;;;16.08;9.38;;;15.70;99.90;;;;;;5088917;28;20059;-77
2022/07/01 05:40:08;;;;;;;15.00;9.43;;;15.60;99.90;;;;;;5039074;28;20032;-78
2022/07/01 05:42:34;;;;;;;15.52;9.50;;;15.70;99.90;;;;;;5055400;28;20032;-77
2022/07/01 05:45:00;;;;;;;15.60;9.75;;;15.70;99.90;;;;;;5072659;28;20083;-77
2022/07/01 05:47:25;;;;;;;17.83;10.45;;;15.70;99.90;;;;;;5039047;28;20357;-77
2022/07/01 05:49:51;;;;;;;17.85;10.50;;;15.80;99.90;;;;;;5064414;28;20043;-77
2022/07/01 05:52:17;;;;;;;17.20;11.05;;;15.80;99.90;;;;;;5052138;28;20047;-77
2022/07/01 05:54:42;;;;;;;17.27;11.02;;;15.80;99.90;;;;;;5057020;28;20549;-77
2022/07/01 05:57:09;;;;;;;17.60;10.60;;;15.90;99.90;;;;;;5048376;28;20040;-77
2022/07/01 05:59:35;;;;;;;18.55;12.70;;;15.90;99.90;;;;;;5054305;28;20510;-78
2022/07/01 06:02:01;;;;;;;17.05;11.02;;;16.00;99.90;;;;;;5054865;28;20051;-77
2022/07/01 06:04:27;;;;;;;19.48;11.95;;;16.00;99.90;;;;;;5071819;28;20055;-77
2022/07/01 06:06:52;;;;;;;21.38;12.93;;;16.00;99.90;;;;;;5037939;28;20127;-78
2022/07/01 06:09:18;;;;;;;19.33;12.93;;;16.10;99.90;;;;;;5088215;28;20082;-78
2022/07/01 06:11:44;;;;;;;20.17;12.82;;;16.10;99.90;;;;;;5054643;28;20296;-78
2022/07/01 06:14:09;;;;;;;19.38;12.10;;;16.20;99.90;;;;;;5038625;28;20047;-78
2022/07/01 06:16:35;;;;;;;20.23;12.85;;;16.30;99.90;;;;;;5088639;28;20474;-77
2022/07/01 06:19:01;;;;;;;18.90;13.50;;;16.30;99.90;;;;;;5054803;28;20052;-78
2022/07/01 06:21:27;;;;;;;20.45;13.98;;;16.30;99.90;;;;;;5087858;28;20054;-78
2022/07/01 06:23:52;;;;;;;19.67;14.05;;;16.30;99.90;;;;;;5071479;28;20115;-77
2022/07/01 06:26:18;;;;;;;22.80;14.88;;;16.30;99.90;;;;;;5037568;28;20036;-77
2022/07/01 06:28:44;;;;;;;22.17;15.32;;;16.30;99.90;;;;;;5038027;28;20089;-78
2022/07/01 06:31:09;;;;;;;23.58;14.85;;;16.40;99.90;;;;;;5070815;28;20048;-78
2022/07/01 06:33:35;;;;;;;20.92;14.60;;;16.40;99.90;;;;;;5054388;28;20115;-78
2022/07/01 06:36:01;;;;;;;20.88;14.95;;;16.40;99.90;;;;;;5053957;28;20154;-78
2022/07/01 06:38:28;;;;;;;20.95;14.02;;;16.40;99.90;;;;;;5071350;28;20051;-78
2022/07/01 06:43:38;;;;;;;21.20;14.32;;;16.50;99.90;;;;;;5087264;28;20040;-78
2022/07/01 06:46:05;;;;;;;19.83;13.77;;;16.60;99.90;;;;;;5067406;28;20113;-77
2022/07/01 06:48:31;;;;;;;19.63;14.05;;;16.70;99.90;;;;;;5081260;28;20592;-78
2022/07/01 06:50:57;;;;;;;20.35;13.65;;;16.70;99.90;;;;;;5067246;28;20083;-78
2022/07/01 06:53:22;;;;;;;19.33;13.05;;;16.70;99.90;;;;;;5063644;28;20126;-77
2022/07/01 06:55:48;;;;;;;20.13;13.70;;;16.80;99.90;;;;;;5035536;28;20066;-78
2022/07/01 06:58:14;;;;;;;19.27;13.32;;;16.90;99.90;;;;;;5067619;28;20498;-78
2022/07/01 07:00:39;;;;;;;21.48;14.30;;;17.00;99.90;;;;;;5050391;28;20063;-78
2022/07/01 07:03:05;;;;;;;19.25;12.43;;;17.10;99.90;;;;;;5051051;28;20090;-78
2022/07/01 07:05:31;;;;;;;17.73;12.00;;;17.10;99.90;;;;;;5034056;28;20123;-78
2022/07/01 07:07:57;;;;;;;18.58;12.68;;;17.20;99.90;;;;;;5050551;28;20585;-78
2022/07/01 07:10:23;;;;;;;21.75;13.55;;;17.20;99.90;;;;;;5050465;28;20052;-77
2022/07/01 07:12:49;;;;;;;20.23;12.65;;;17.30;99.90;;;;;;5050531;28;20036;-77
2022/07/01 07:15:15;;;;;;;17.23;12.75;;;17.30;99.90;;;;;;5050739;28;20117;-77
2022/07/01 07:17:42;;;;;;;18.15;11.82;;;17.40;99.90;;;;;;5067185;28;20056;-78
2022/07/01 07:20:08;;;;;;;18.10;12.57;;;17.50;99.90;;;;;;5067229;28;20052;-77
2022/07/01 07:22:34;;;;;;;20.25;13.68;;;17.40;99.90;;;;;;5050365;28;20075;-77
2022/07/01 07:24:59;;;;;;;19.05;14.05;;;17.40;99.90;;;;;;5017589;28;20071;-77
2022/07/01 07:27:25;;;;;;;20.50;14.55;;;17.40;99.90;;;;;;5029455;28;20040;-77
2022/07/01 07:29:51;;;;;;;22.85;15.30;;;17.20;99.90;;;;;;5063761;28;20600;-78
2022/07/01 07:32:17;;;;;;;20.85;14.50;;;17.40;99.90;;;;;;5070561;28;20039;-78
2022/07/01 07:34:43;;;;;;;19.38;14.88;;;17.40;99.90;;;;;;5070509;28;20051;-77
2022/07/01 07:37:08;;;;;;;19.95;14.63;;;17.40;99.90;;;;;;5070015;28;20040;-77
2022/07/01 07:39:34;;;;;;;21.75;15.70;;;17.40;99.90;;;;;;5070709;28;20036;-77
2022/07/01 07:42:00;;;;;;;20.42;14.70;;;17.40;99.90;;;;;;5070243;28;20620;-77
2022/07/01 07:44:26;;;;;;;21.50;15.38;;;17.50;99.90;;;;;;5087387;28;20546;-77
2022/07/01 07:46:52;;;;;;;20.88;15.38;;;17.60;99.90;;;;;;5053501;28;20043;-77
2022/07/01 07:49:18;;;;;;;19.77;15.05;;;17.70;99.90;;;;;;5077696;28;20044;-78
2022/07/01 07:51:44;;;;;;;21.55;13.75;;;17.70;99.90;;;;;;5050070;28;20051;-77
2022/07/01 07:54:09;;;;;;;20.67;14.45;;;17.70;99.90;;;;;;5057737;28;20047;-77
2022/07/01 07:56:35;;;;;;;18.73;12.70;;;17.70;99.90;;;;;;5069701;28;20040;-77
2022/07/01 07:59:01;;;;;;;19.38;14.38;;;17.70;99.90;;;;;;5070796;28;20044;-77
2022/07/01 08:01:26;;;;;;;19.38;13.80;;;17.80;99.90;;;;;;5053432;28;20556;-77
2022/07/01 08:03:52;;;;;;;17.88;13.48;;;17.80;99.90;;;;;;5053804;28;20094;-78
2022/07/01 08:06:18;;;;;;;18.73;13.35;;;17.80;99.90;;;;;;5070020;28;20040;-77
2022/07/01 08:08:45;;;;;;;18.63;13.10;;;17.80;99.90;;;;;;5051228;28;20449;-77
2022/07/01 08:11:11;;;;;;;17.67;13.43;;;17.80;99.90;;;;;;5050236;28;20109;-77
2022/07/01 08:13:36;;;;;;;18.70;14.00;;;17.80;99.90;;;;;;5066897;28;20044;-77
2022/07/01 08:16:03;;;;;;;19.38;13.18;;;17.50;99.90;;;;;;5049928;28;20040;-77
2022/07/01 08:18:30;;;;;;;17.20;12.77;;;17.90;99.90;;;;;;5066903;28;20091;-77
2022/07/01 08:20:55;;;;;;;16.52;12.30;;;18.00;99.90;;;;;;5049934;28;20048;-77
2022/07/01 08:23:22;;;;;;;18.52;12.95;;;18.00;99.90;;;;;;5036260;28;20043;-78
2022/07/01 08:25:49;;;;;;;18.17;12.65;;;18.10;99.90;;;;;;5070850;28;20089;-77
2022/07/01 08:28:15;;;;;;;17.42;11.93;;;18.10;99.90;;;;;;5036923;28;20112;-77
2022/07/01 08:30:40;;;;;;;17.35;11.32;;;18.10;99.90;;;;;;5070119;28;20075;-77
2022/07/01 08:33:06;;;;;;;17.88;11.45;;;18.10;99.90;;;;;;5070322;28;20044;-77
2022/07/01 08:35:32;;;;;;;17.60;11.60;;;18.10;99.90;;;;;;5070536;28;20044;-77
2022/07/01 08:37:58;;;;;;;17.23;11.82;;;18.10;99.90;;;;;;5053257;28;20109;-77
2022/07/01 08:40:29;;;;;;;16.90;11.50;;;18.10;99.90;;;;;;5069962;28;20040;-78
2022/07/01 08:42:59;;;;;;;15.35;10.40;;;18.20;99.90;;;;;;5070068;28;20052;-77
2022/07/01 08:45:31;;;;;;;16.70;11.38;;;18.20;99.90;;;;;;5053652;28;20032;-77
2022/07/01 08:48:00;;;;;;;16.70;10.53;;;18.10;99.90;;;;;;5058829;28;20058;-78
2022/07/01 08:50:31;;;;;;;17.30;10.25;;;18.10;99.90;;;;;;5053785;28;20036;-78
2022/07/01 08:52:58;;;;;;;14.75;10.57;;;18.30;99.90;;;;;;5020611;28;20124;-78
2022/07/01 08:55:24;;;;;;;16.52;9.27;;;18.40;99.90;;;;;;5071122;28;20046;-78
2022/07/01 08:57:51;;;;;;;15.60;10.00;;;18.50;99.90;;;;;;5057815;28;20130;-78
2022/07/01 09:00:17;;;;;;;14.30;9.45;;;18.60;99.90;;;;;;5077920;28;20044;-78
2022/07/01 09:03:00;;;;;;;14.10;8.57;;;18.80;99.90;;;;;;5072689;28;20044;-78
2022/07/01 09:05:27;;;;;;;;;;;18.90;99.90;;;;;;5073393;28;20115;-77
2022/07/01 09:08:01;;;;;;;13.80;8.52;;;18.90;99.90;;;;;;5089454;28;19915;-78
2022/07/01 09:10:27;;;;;;;13.50;8.52;;;19.10;99.90;;;;;;5089802;28;20556;-77
2022/07/01 09:12:53;;;;;;;15.55;8.07;;;19.10;99.90;;;;;;5072952;28;20130;-77
2022/07/01 09:15:27;;;;;;;13.07;8.40;;;19.30;99.90;;;;;;5056442;28;20184;-78
2022/07/01 09:18:03;;;;;;;13.45;7.65;;;19.40;99.90;;;;;;5089221;28;20052;-77
2022/07/01 09:20:34;;;;;;;13.60;7.65;;;19.60;99.90;;;;;;5057507;28;20048;-78
2022/07/01 09:23:04;;;;;;;12.15;6.60;;;19.80;99.90;;;;;;5072858;28;20035;-78
2022/07/01 09:25:37;;;;;;;12.05;6.47;;;20.00;99.90;;;;;;5089463;28;20040;-78
2022/07/01 09:28:08;;;;;;;11.90;6.82;;;20.20;99.90;;;;;;5052671;28;20517;-78
2022/07/01 09:30:34;;;;;;;10.02;4.60;;;20.30;99.90;;;;;;5052785;28;20098;-78
2022/07/01 09:33:09;;;;;;;10.63;4.53;;;20.20;99.90;;;;;;5035423;28;20124;-78
2022/07/01 09:35:36;;;;;;;12.07;4.20;;;20.10;99.90;;;;;;5052665;28;20498;-78
2022/07/01 09:38:02;;;;;;;8.82;4.70;;;19.90;99.90;;;;;;5052796;28;20045;-77
2022/07/01 09:40:45;;;;;;;10.05;4.40;;;19.80;99.90;;;;;;5036158;28;20060;-78
2022/07/01 09:43:25;;;;;;;;;;;19.90;99.90;;;;;;5077431;28;20118;-78
2022/07/01 09:45:56;;;;;;;12.68;4.80;;;19.90;99.90;;;;;;5072073;28;19967;-77
2022/07/01 09:48:40;;;;;;;13.98;5.22;;;20.00;99.90;;;;;;5062599;28;20036;-77
2022/07/01 09:51:09;;;;;;;12.35;4.80;;;20.20;99.90;;;;;;5052095;28;20123;-77
2022/07/01 09:53:35;;;;;;;11.45;4.15;;;20.20;99.90;;;;;;5054764;28;20036;-78
2022/07/01 09:56:01;;;;;;;9.35;4.05;;;20.30;99.90;;;;;;5072076;28;20074;-77
2022/07/01 09:58:27;;;;;;;9.85;3.78;;;20.30;99.90;;;;;;5052368;28;20162;-78
2022/07/01 10:00:54;;;;;;;8.82;3.80;;;20.30;99.90;;;;;;5035264;28;20090;-78
2022/07/01 10:03:21;;;;;;;13.65;4.57;;;20.30;99.90;;;;;;5052070;28;20041;-78
2022/07/01 10:05:51;;;;;;;9.30;3.53;;;20.20;99.90;;;;;;5071517;28;20036;-78
2022/07/01 10:08:54;;;;;;;8.65;3.50;;;20.20;99.90;;;;;;5069037;28;20570;-78
2022/07/01 10:11:57;;;;;;;9.70;3.70;;;20.20;99.90;;;;;;5060320;28;20051;-78
2022/07/01 10:14:23;;;;;;;8.98;3.33;;;20.20;99.90;;;;;;5089039;28;20051;-78
2022/07/01 10:16:49;;;;;;;9.52;3.25;;;20.10;99.90;;;;;;5088556;28;20080;-78
2022/07/01 10:19:25;;;;;;;9.75;2.90;;;20.40;99.90;;;;;;5046097;28;20666;-78
2022/07/01 10:21:53;;;;;;;8.95;3.20;;;20.70;99.90;;;;;;5051384;28;20040;-78
2022/07/01 10:24:20;;;;;;;9.95;2.75;;;20.80;99.90;;;;;;5075313;28;20521;-78
2022/07/01 10:26:46;;;;;;;8.10;3.00;;;20.60;99.90;;;;;;5059400;28;20115;-78
2022/07/01 10:29:31;;;;;;;10.00;3.05;;;20.60;99.90;;;;;;5068334;28;20032;-78
2022/07/01 10:32:29;;;;;;;8.40;3.30;;;20.60;99.90;;;;;;5067883;28;20195;-79
2022/07/01 10:35:06;;;;;;;8.52;3.38;;;20.70;99.90;;;;;;5051407;28;20052;-78
2022/07/01 10:37:32;;;;;;;9.57;3.90;;;20.90;99.90;;;;;;5051234;28;20075;-78
2022/07/01 10:40:00;;;;;;;9.85;3.30;;;21.00;99.90;;;;;;5068144;28;20475;-78
2022/07/01 10:42:58;;;;;;;9.27;3.17;;;21.30;99.90;;;;;;5067401;28;20380;-78
2022/07/01 10:45:24;;;;;;;9.18;2.97;;;21.60;99.90;;;;;;5070600;28;20523;-77
2022/07/01 10:48:19;;;;;;;8.80;3.35;;;21.50;99.90;;;;;;5082748;28;20036;-77
2022/07/01 10:50:46;;;;;;;8.80;2.90;;;21.60;99.90;;;;;;5050859;28;20079;-78
2022/07/01 10:53:12;;;;;;;11.43;3.33;;;21.80;99.90;;;;;;5035030;28;20525;-78
2022/07/01 10:55:40;;;;;;;10.98;3.67;;;21.90;99.90;;;;;;5087341;28;20218;-78
2022/07/01 10:58:07;;;;;;;9.13;3.40;;;22.10;99.90;;;;;;5055007;28;20517;-78
2022/07/01 11:00:35;;;;;;;7.90;3.00;;;22.30;99.90;;;;;;5054284;28;20036;-78
2022/07/01 11:03:28;;;;;;;8.45;3.40;;;22.40;99.90;;;;;;5070958;28;20040;-78
2022/07/01 11:05:55;;;;;;;9.13;3.30;;;22.50;99.90;;;;;;5070638;28;20032;-78
2022/07/01 11:08:22;;;;;;;10.20;4.45;;;22.50;99.90;;;;;;5055921;28;20075;-78
2022/07/01 11:10:54;;;;;;;11.45;4.20;;;22.40;99.90;;;;;;5050666;28;20043;-78
2022/07/01 11:13:20;;;;;;;9.60;3.65;;;22.10;99.90;;;;;;5050925;28;20048;-78
2022/07/01 11:15:47;;;;;;;10.80;3.88;;;21.70;99.90;;;;;;5050610;28;20128;-78
2022/07/01 11:18:16;;;;;;;11.00;3.95;;;21.50;99.90;;;;;;5067264;28;20092;-78
2022/07/01 11:20:42;;;;;;;9.27;3.58;;;21.40;99.90;;;;;;5050812;28;20090;-78
2022/07/01 11:23:08;;;;;;;10.57;4.28;;;21.50;99.90;;;;;;5050704;28;20534;-78
2022/07/01 11:25:34;;;;;;;9.02;3.65;;;21.30;99.90;;;;;;5050861;28;20044;-78
2022/07/01 11:28:00;;;;;;;6.60;1.83;;;21.00;99.90;;;;;;5080723;28;20062;-79
2022/07/01 11:30:25;;;;;;;5.88;1.85;;;20.60;99.90;;;;;;5087379;28;20040;-78
2022/07/01 11:32:56;;;;;;;5.32;1.50;;;20.10;99.90;;;;;;5070560;28;20040;-78
2022/07/01 11:41:02;;;;;;;6.25;1.40;;;19.20;99.90;;;;;;5067111;28;20089;-78
2022/07/01 11:43:33;;;;;;;5.40;1.40;;;19.00;99.90;;;;;;5067362;28;20036;-78
2022/07/01 11:46:01;;;;;;;4.95;1.40;;;18.90;99.90;;;;;;5062195;28;20532;-78
2022/07/01 11:48:42;;;;;;;6.05;1.63;;;18.90;99.90;;;;;;5071250;28;20409;-78
2022/07/01 11:51:13;;;;;;;3.40;1.30;;;18.80;99.90;;;;;;5057111;28;20049;-78
2022/07/01 11:53:50;;;;;;;3.05;1.10;;;18.80;99.90;;;;;;5054100;28;20028;-78
2022/07/01 11:56:18;;;;;;;4.10;1.35;;;18.80;99.90;;;;;;5088145;28;20113;-78
2022/07/01 11:58:50;;;;;;;3.97;1.48;;;19.20;99.90;;;;;;5074468;28;20044;-79
2022/07/01 12:01:35;;;;;;;;;;;19.70;99.90;;;;;;5091389;28;20050;-78
2022/07/01 12:04:04;;;;;;;5.43;1.38;;;20.00;99.90;;;;;;5074734;28;20023;-78
2022/07/01 12:06:30;;;;;;;4.55;1.50;;;20.10;99.90;;;;;;5073717;28;20116;-78
2022/07/01 12:08:56;;;;;;;4.05;1.40;;;20.10;99.90;;;;;;5074176;28;20040;-79
2022/07/01 12:11:24;;;;;;;5.40;1.42;;;20.00;99.90;;;;;;5090588;28;20514;-78
2022/07/01 12:13:51;;;;;;;5.22;1.50;;;19.90;99.90;;;;;;5074450;28;20530;-78
2022/07/01 12:16:18;;;;;;;4.32;1.40;;;19.70;99.90;;;;;;5073637;28;20494;-77
2022/07/01 12:18:55;;;;;;;6.50;1.40;;;19.70;99.90;;;;;;5083441;28;20475;-78
2022/07/01 12:21:22;;;;;;;6.97;1.60;;;19.60;99.90;;;;;;5070004;28;20491;-80
2022/07/01 12:24:11;;;;;;;6.30;1.55;;;19.70;99.90;;;;;;5070865;28;20040;-78
2022/07/01 12:26:51;;;;;;;6.78;1.60;;;20.10;99.90;;;;;;5070470;28;20426;-78
2022/07/01 12:29:21;;;;;;;6.28;1.67;;;20.50;99.90;;;;;;5070942;28;20066;-78
2022/07/01 12:32:13;;;;;;;5.22;1.60;;;20.80;99.90;;;;;;5060402;28;20051;-78
2022/07/01 12:34:49;;;;;;;8.15;1.70;;;21.00;99.90;;;;;;5076883;28;20446;-78
2022/07/01 12:37:20;;;;;;;6.15;1.73;;;21.00;99.90;;;;;;5073363;28;20494;-78
2022/07/01 12:40:14;;;;;;;5.55;1.58;;;20.90;99.90;;;;;;5090706;28;20044;-78
2022/07/01 12:42:44;;;;;;;4.88;1.50;;;20.80;99.90;;;;;;5087873;28;20052;-78
2022/07/01 12:45:12;;;;;;;8.32;2.35;;;20.80;99.90;;;;;;5040440;28;20059;-78
2022/07/01 12:47:48;;;;;;;6.53;1.80;;;20.90;99.90;;;;;;5073329;28;20405;-78
2022/07/01 12:50:26;;;;;;;5.18;1.50;;;21.30;99.90;;;;;;5073308;28;20407;-78
2022/07/01 12:53:08;;;;;;;8.32;1.83;;;21.50;99.90;;;;;;5073068;28;20036;-79
2022/07/01 12:55:48;;;;;;;7.57;1.60;;;21.50;99.90;;;;;;5079042;28;20044;-78
2022/07/01 12:58:26;;;;;;;4.82;1.30;;;21.30;99.90;;;;;;5055216;28;20041;-78
2022/07/01 13:00:55;;;;;;;3.40;1.05;;;21.40;99.90;;;;;;5075638;28;20048;-78
2022/07/01 13:03:23;;;;;;;5.13;1.30;;;21.60;99.90;;;;;;5069802;28;20057;-79
2022/07/01 13:05:50;;;;;;;3.50;1.00;;;21.90;99.90;;;;;;5069335;28;20116;-79
2022/07/01 13:08:16;;;;;;;5.53;1.23;;;22.10;99.90;;;;;;5069359;28;20047;-79